LAN8202 SBGR-SPJC
Flight info
| Callsign | LAN8202 |
|---|---|
| Flight time | N/A |
| Altitude | 36000 |
| Route | EGEVA UM415 JUL UV18 AND UT336 VUPUD DCT PEROV |
| Aircraft | B77W/H-SDE1E2E3FGHIJ2J3J4J5M1RWXY/LB1D1 |
Departure
| Time | 2026-05-05 14:27 |
|---|---|
| Airport | São Paulo/Guarulhos–Governor André Franco Montoro International Airport (SBGR) |
Arrival
| Time | N/A |
|---|---|
| Airport | Jorge Chávez International Airport (SPJC) |
| Time | Latitude | Longitude | Altitude | Speed | Heading |
|---|---|---|---|---|---|
| 2026-05-05 14:07 | -23.42986 | -46.48277 | 2470 ft | 0 kts | 356° |
| 2026-05-05 14:19 | -23.42987 | -46.48277 | 2497 ft | 2 kts | 356° |
| 2026-05-05 14:19 | -23.43012 | -46.48274 | 2473 ft | 3 kts | 354° |
| 2026-05-05 14:20 | -23.43034 | -46.48271 | 2473 ft | 4 kts | 335° |
| 2026-05-05 14:20 | -23.43049 | -46.48260 | 2470 ft | 4 kts | 294° |
| 2026-05-05 14:20 | -23.43052 | -46.48238 | 2470 ft | 4 kts | 262° |
| 2026-05-05 14:20 | -23.43049 | -46.48211 | 2470 ft | 2 kts | 264° |
| 2026-05-05 14:21 | -23.43048 | -46.48209 | 2470 ft | 0 kts | 264° |
| 2026-05-05 14:23 | -23.43048 | -46.48210 | 2470 ft | 1 kts | 264° |
| 2026-05-05 14:23 | -23.43050 | -46.48222 | 2470 ft | 3 kts | 264° |
| 2026-05-05 14:24 | -23.43052 | -46.48249 | 2470 ft | 4 kts | 264° |
| 2026-05-05 14:24 | -23.43055 | -46.48287 | 2472 ft | 6 kts | 264° |
| 2026-05-05 14:24 | -23.43060 | -46.48333 | 2470 ft | 7 kts | 264° |
| 2026-05-05 14:24 | -23.43067 | -46.48390 | 2474 ft | 8 kts | 250° |
| 2026-05-05 14:25 | -23.43112 | -46.48418 | 2472 ft | 8 kts | 180° |
| 2026-05-05 14:25 | -23.43167 | -46.48406 | 2475 ft | 8 kts | 166° |
| 2026-05-05 14:25 | -23.43221 | -46.48390 | 2473 ft | 8 kts | 164° |
| 2026-05-05 14:25 | -23.43275 | -46.48373 | 2476 ft | 8 kts | 164° |
| 2026-05-05 14:26 | -23.43337 | -46.48354 | 2471 ft | 13 kts | 164° |
| 2026-05-05 14:26 | -23.43409 | -46.48294 | 2472 ft | 15 kts | 95° |
| 2026-05-05 14:26 | -23.43382 | -46.48163 | 2472 ft | 27 kts | 74° |
| 2026-05-05 14:26 | -23.43270 | -46.47745 | 2471 ft | 93 kts | 73° |
| 2026-05-05 14:27 | -23.43024 | -46.46840 | 2475 ft | 154 kts | 74° |
| 2026-05-05 14:27 | -23.42673 | -46.45549 | 2508 ft | 195 kts | 73° |
| 2026-05-05 14:27 | -23.42301 | -46.44179 | 3230 ft | 187 kts | 72° |
| 2026-05-05 14:27 | -23.41837 | -46.42822 | 3665 ft | 200 kts | 70° |
| 2026-05-05 14:28 | -23.41435 | -46.41351 | 4229 ft | 201 kts | 73° |
| 2026-05-05 14:28 | -23.41044 | -46.39935 | 5007 ft | 191 kts | 72° |
| 2026-05-05 14:28 | -23.40646 | -46.38559 | 5726 ft | 191 kts | 71° |
| 2026-05-05 14:28 | -23.40235 | -46.37178 | 6249 ft | 196 kts | 73° |
| 2026-05-05 14:29 | -23.40150 | -46.35656 | 6373 ft | 213 kts | 107° |
| 2026-05-05 14:29 | -23.40670 | -46.34088 | 6655 ft | 232 kts | 110° |
| 2026-05-05 14:29 | -23.41239 | -46.32344 | 6891 ft | 257 kts | 110° |
| 2026-05-05 14:29 | -23.41851 | -46.30457 | 7362 ft | 270 kts | 110° |
| 2026-05-05 14:30 | -23.42485 | -46.28522 | 7934 ft | 279 kts | 111° |
| 2026-05-05 14:30 | -23.43314 | -46.26610 | 8491 ft | 282 kts | 130° |
| 2026-05-05 14:30 | -23.44847 | -46.25319 | 9079 ft | 283 kts | 159° |
| 2026-05-05 14:30 | -23.46774 | -46.25022 | 9299 ft | 284 kts | 186° |
| 2026-05-05 14:31 | -23.48736 | -46.25398 | 9300 ft | 289 kts | 191° |
| 2026-05-05 14:31 | -23.50715 | -46.25816 | 9998 ft | 290 kts | 191° |
| 2026-05-05 14:31 | -23.52703 | -46.26233 | 10734 ft | 293 kts | 192° |
| 2026-05-05 14:31 | -23.54648 | -46.27069 | 10963 ft | 316 kts | 216° |
| 2026-05-05 14:32 | -23.56138 | -46.28928 | 11156 ft | 342 kts | 243° |
| 2026-05-05 14:32 | -23.56857 | -46.31481 | 11343 ft | 363 kts | 257° |
| 2026-05-05 14:32 | -23.57362 | -46.34226 | 11985 ft | 374 kts | 258° |
| 2026-05-05 14:32 | -23.57868 | -46.37031 | 12820 ft | 381 kts | 258° |
| 2026-05-05 14:33 | -23.58398 | -46.39890 | 13677 ft | 387 kts | 258° |
| 2026-05-05 14:33 | -23.58949 | -46.42785 | 14490 ft | 393 kts | 258° |
| 2026-05-05 14:33 | -23.59521 | -46.45715 | 15313 ft | 397 kts | 257° |
| 2026-05-05 14:33 | -23.60103 | -46.48658 | 16090 ft | 398 kts | 257° |
| 2026-05-05 14:34 | -23.60685 | -46.51591 | 16317 ft | 402 kts | 257° |
| 2026-05-05 14:34 | -23.61211 | -46.54601 | 16647 ft | 407 kts | 260° |
| 2026-05-05 14:34 | -23.61638 | -46.57671 | 17461 ft | 410 kts | 261° |
| 2026-05-05 14:34 | -23.62046 | -46.60754 | 18303 ft | 412 kts | 262° |
| 2026-05-05 14:35 | -23.62143 | -46.63901 | 18987 ft | 419 kts | 272° |
| 2026-05-05 14:35 | -23.61785 | -46.67072 | 19633 ft | 424 kts | 279° |
| 2026-05-05 14:35 | -23.61065 | -46.70211 | 20311 ft | 428 kts | 283° |
| 2026-05-05 14:35 | -23.60270 | -46.73366 | 20988 ft | 432 kts | 283° |
| 2026-05-05 14:36 | -23.59465 | -46.76541 | 21667 ft | 436 kts | 283° |
| 2026-05-05 14:36 | -23.58655 | -46.79741 | 22324 ft | 440 kts | 283° |
| 2026-05-05 14:36 | -23.57844 | -46.82972 | 22959 ft | 444 kts | 283° |
| 2026-05-05 14:36 | -23.57030 | -46.86237 | 23597 ft | 448 kts | 283° |
| 2026-05-05 14:37 | -23.56212 | -46.89527 | 24170 ft | 452 kts | 283° |
| 2026-05-05 14:37 | -23.55400 | -46.92801 | 24733 ft | 454 kts | 283° |
| 2026-05-05 14:37 | -23.54576 | -46.96125 | 25336 ft | 455 kts | 283° |
| 2026-05-05 14:37 | -23.53749 | -46.99463 | 25923 ft | 457 kts | 282° |
| 2026-05-05 14:38 | -23.52916 | -47.02821 | 26472 ft | 460 kts | 282° |
| 2026-05-05 14:38 | -23.52079 | -47.06191 | 27012 ft | 463 kts | 282° |
| 2026-05-05 14:38 | -23.51235 | -47.09586 | 27561 ft | 465 kts | 282° |
| 2026-05-05 14:38 | -23.50388 | -47.12993 | 28098 ft | 468 kts | 282° |
| 2026-05-05 14:39 | -23.49534 | -47.16420 | 28624 ft | 470 kts | 282° |
| 2026-05-05 14:39 | -23.48675 | -47.19865 | 29140 ft | 472 kts | 282° |
| 2026-05-05 14:39 | -23.47812 | -47.23319 | 29622 ft | 474 kts | 282° |
| 2026-05-05 14:39 | -23.46943 | -47.26800 | 30055 ft | 477 kts | 282° |
| 2026-05-05 14:40 | -23.46068 | -47.30294 | 30425 ft | 480 kts | 282° |
| 2026-05-05 14:40 | -23.45191 | -47.33790 | 30996 ft | 476 kts | 282° |
| 2026-05-05 14:40 | -23.44321 | -47.37254 | 31655 ft | 471 kts | 281° |
| 2026-05-05 14:40 | -23.43459 | -47.40680 | 32222 ft | 468 kts | 281° |
| 2026-05-05 14:41 | -23.42602 | -47.44091 | 32737 ft | 466 kts | 281° |
| 2026-05-05 14:41 | -23.41749 | -47.47485 | 33224 ft | 464 kts | 281° |
| 2026-05-05 14:41 | -23.40898 | -47.50865 | 33719 ft | 462 kts | 281° |
| 2026-05-05 14:41 | -23.40052 | -47.54224 | 34224 ft | 459 kts | 281° |
| 2026-05-05 14:42 | -23.39208 | -47.57571 | 34644 ft | 457 kts | 281° |
| 2026-05-05 14:42 | -23.38369 | -47.60895 | 35055 ft | 454 kts | 281° |
| 2026-05-05 14:42 | -23.37532 | -47.64209 | 35448 ft | 453 kts | 281° |
| 2026-05-05 14:42 | -23.36700 | -47.67501 | 35802 ft | 451 kts | 280° |
| 2026-05-05 14:43 | -23.35867 | -47.70793 | 36139 ft | 451 kts | 280° |
| 2026-05-05 14:43 | -23.35031 | -47.74102 | 36161 ft | 456 kts | 280° |
| 2026-05-05 14:43 | -23.33358 | -47.80696 | 36201 ft | 452 kts | 280° |
| 2026-05-05 14:44 | -23.31679 | -47.87289 | 36202 ft | 447 kts | 280° |
| 2026-05-05 14:44 | -23.30021 | -47.93800 | 36210 ft | 446 kts | 280° |
| 2026-05-05 14:45 | -23.28370 | -48.00274 | 36210 ft | 447 kts | 280° |
| 2026-05-05 14:45 | -23.26707 | -48.06784 | 36209 ft | 447 kts | 280° |
| 2026-05-05 14:46 | -23.25038 | -48.13300 | 36208 ft | 448 kts | 280° |
| 2026-05-05 14:46 | -23.23361 | -48.19837 | 36208 ft | 449 kts | 280° |
| 2026-05-05 14:47 | -23.21680 | -48.26374 | 36213 ft | 450 kts | 280° |
| 2026-05-05 14:47 | -23.19991 | -48.32932 | 36208 ft | 450 kts | 280° |
| 2026-05-05 14:48 | -23.18299 | -48.39489 | 36207 ft | 451 kts | 280° |
| 2026-05-05 14:48 | -23.16604 | -48.46046 | 36206 ft | 450 kts | 280° |
| 2026-05-05 14:49 | -23.14908 | -48.52598 | 36208 ft | 450 kts | 280° |
| 2026-05-05 14:49 | -23.13091 | -48.59113 | 36203 ft | 451 kts | 283° |
| 2026-05-05 14:50 | -23.11031 | -48.65559 | 36200 ft | 452 kts | 283° |
| 2026-05-05 14:50 | -23.08955 | -48.71994 | 36200 ft | 451 kts | 283° |
| 2026-05-05 14:51 | -23.06897 | -48.78421 | 36201 ft | 450 kts | 283° |
| 2026-05-05 14:51 | -23.04859 | -48.84809 | 36205 ft | 450 kts | 283° |
| 2026-05-05 14:52 | -23.02806 | -48.91236 | 36202 ft | 450 kts | 283° |
| 2026-05-05 14:52 | -23.00753 | -48.97652 | 36195 ft | 450 kts | 283° |
| 2026-05-05 14:53 | -22.98697 | -49.04065 | 36198 ft | 450 kts | 283° |